createdAt,value
2022-10-04T00:00:00.260Z,86
2022-10-04T00:01:00.413Z,86.1
2022-10-04T00:02:00.626Z,86.1
2022-10-04T00:03:00.768Z,85.5
2022-10-04T00:04:00.866Z,85.5
2022-10-04T00:05:01.006Z,85.4
2022-10-04T00:06:01.157Z,85.5
2022-10-04T00:07:00.294Z,85.7
2022-10-04T00:08:00.448Z,85.6
2022-10-04T00:09:00.612Z,85.3
2022-10-04T00:10:00.752Z,85.1
2022-10-04T00:11:00.896Z,85.5
2022-10-04T00:12:01.049Z,85.4
2022-10-04T00:13:01.193Z,85.9
2022-10-04T00:14:00.349Z,85.6
2022-10-04T00:15:00.512Z,85.7
2022-10-04T00:16:00.727Z,85.9
2022-10-04T00:17:00.796Z,85.6
2022-10-04T00:18:00.941Z,85.8
2022-10-04T00:19:01.095Z,85.7
2022-10-04T00:20:01.278Z,85.6
2022-10-04T00:21:00.396Z,85.8
2022-10-04T00:22:00.537Z,86
2022-10-04T00:23:00.682Z,86.1
2022-10-04T00:24:00.826Z,86.4
2022-10-04T00:25:00.995Z,86.7
2022-10-04T00:26:01.114Z,86.8
2022-10-04T00:27:00.260Z,86.4
2022-10-04T00:28:00.491Z,86.3
2022-10-04T00:29:00.546Z,85.8
2022-10-04T00:30:00.731Z,86
2022-10-04T00:31:00.903Z,86.2
2022-10-04T00:32:00.985Z,86.4
2022-10-04T00:33:01.134Z,86.3
2022-10-04T00:34:00.282Z,86.2
2022-10-04T00:35:00.455Z,86.3
2022-10-04T00:36:00.596Z,86.4
2022-10-04T00:37:00.736Z,86.1
2022-10-04T00:38:00.885Z,85.8
2022-10-04T00:39:01.059Z,85.8
2022-10-04T00:40:01.185Z,86.2
2022-10-04T00:41:00.337Z,86.4
2022-10-04T00:42:00.476Z,86.5
2022-10-04T00:43:00.626Z,86.5
2022-10-04T00:44:00.800Z,86.5
2022-10-04T00:45:00.933Z,86.5
2022-10-04T00:46:01.201Z,86.3
2022-10-04T00:47:01.249Z,86.1
2022-10-04T00:48:00.380Z,86.4
2022-10-04T00:49:00.547Z,86.4
2022-10-04T00:50:00.693Z,86.6
2022-10-04T00:51:00.819Z,86.6
2022-10-04T00:52:00.962Z,86.9
2022-10-04T00:53:01.109Z,86.9
2022-10-04T00:55:00.368Z,86.8
2022-10-04T00:56:00.500Z,87
2022-10-04T00:57:00.646Z,87.4
2022-10-04T00:58:00.786Z,87.2
2022-10-04T00:59:00.933Z,87.2
2022-10-04T01:00:01.106Z,87.1
2022-10-04T01:01:01.293Z,86.9
2022-10-04T01:02:00.632Z,87.1
2022-10-04T01:03:00.535Z,87.1
2022-10-04T01:04:00.682Z,87
2022-10-04T01:05:00.846Z,86.8
2022-10-04T01:06:00.969Z,86.8
2022-10-04T01:07:01.115Z,87
2022-10-04T01:08:00.263Z,87
2022-10-04T01:09:00.410Z,87.2
2022-10-04T01:10:00.588Z,87.3
2022-10-04T01:11:00.710Z,87.2
2022-10-04T01:12:00.857Z,87.1
2022-10-04T01:13:01.007Z,87
2022-10-04T01:14:01.158Z,86.9
2022-10-04T01:15:00.315Z,87
2022-10-04T01:16:00.498Z,87.2
2022-10-04T01:17:00.597Z,87
2022-10-04T01:18:02.032Z,87
2022-10-04T01:19:00.915Z,87.1
2022-10-04T01:20:01.054Z,87.3
2022-10-04T01:21:01.215Z,87.3
2022-10-04T01:22:00.354Z,87.4
2022-10-04T01:23:00.508Z,87.1
2022-10-04T01:24:00.646Z,86.9
2022-10-04T01:25:00.828Z,86.8
2022-10-04T01:26:00.952Z,87.1
2022-10-04T01:27:01.088Z,86.9
2022-10-04T01:28:01.288Z,86.7
2022-10-04T01:29:00.365Z,86.6
2022-10-04T01:30:00.547Z,86.6
2022-10-04T01:31:00.712Z,86.8
2022-10-04T01:32:00.844Z,86.7
2022-10-04T01:33:00.983Z,86.3
2022-10-04T01:34:01.125Z,86.2
2022-10-04T01:35:00.283Z,86.2
2022-10-04T01:36:00.409Z,86.5
2022-10-04T01:37:00.551Z,86.5
2022-10-04T01:38:00.701Z,86.4
2022-10-04T01:39:00.865Z,86.6
2022-10-04T01:40:00.994Z,86.5
2022-10-04T01:41:01.141Z,86.8
2022-10-04T01:42:00.289Z,86.8
2022-10-04T01:43:00.440Z,86.8
2022-10-04T01:44:00.568Z,86.8
2022-10-04T01:45:00.732Z,86.8
2022-10-04T01:46:00.950Z,86.9
2022-10-04T01:47:01.024Z,86.8
2022-10-04T01:48:01.202Z,86.8
2022-10-04T01:49:00.320Z,86.7
2022-10-04T01:50:00.469Z,86.7
2022-10-04T01:51:00.618Z,86.8
2022-10-04T01:52:00.774Z,87
2022-10-04T01:53:00.944Z,86.9
2022-10-04T01:54:01.080Z,87
2022-10-04T01:55:01.214Z,86.8
2022-10-04T01:56:00.356Z,87.1
2022-10-04T01:57:00.501Z,87.2
2022-10-04T01:58:00.656Z,87.2
2022-10-04T01:59:00.823Z,87.2
2022-10-04T02:00:00.988Z,87.2
2022-10-04T02:01:01.164Z,87.2
2022-10-04T02:02:01.246Z,87.1
2022-10-04T02:03:00.396Z,87.1
2022-10-04T02:04:00.532Z,87.1
2022-10-04T02:05:00.740Z,87.1
2022-10-04T02:06:00.833Z,86.8
2022-10-04T02:07:00.973Z,86.8
2022-10-04T02:08:01.127Z,87
2022-10-04T02:09:00.266Z,86.8
2022-10-04T02:10:00.429Z,86.5
2022-10-04T02:11:00.589Z,86.6
2022-10-04T02:12:00.707Z,86.7
2022-10-04T02:13:00.858Z,87.1
2022-10-04T02:14:01.007Z,87.1
2022-10-04T02:15:01.138Z,87
2022-10-04T02:16:00.360Z,87
2022-10-04T02:17:00.430Z,86.8
2022-10-04T02:18:00.596Z,87
2022-10-04T02:19:00.749Z,86.9
2022-10-04T02:20:00.891Z,87.1
2022-10-04T02:21:01.061Z,87.3
2022-10-04T02:22:01.190Z,87.3
2022-10-04T02:23:00.332Z,87.3
2022-10-04T02:24:00.486Z,87.2
2022-10-04T02:25:00.636Z,87.1
2022-10-04T02:26:00.804Z,87.3
2022-10-04T02:27:00.937Z,87.3
2022-10-04T02:28:01.144Z,87.2
2022-10-04T02:29:01.232Z,87.1
2022-10-04T02:30:00.389Z,87
2022-10-04T02:31:00.556Z,86.9
2022-10-04T02:32:00.647Z,87
2022-10-04T02:33:00.825Z,87.2
2022-10-04T02:34:00.939Z,87.2
2022-10-04T02:35:01.106Z,87
2022-10-04T02:36:01.241Z,87
2022-10-04T02:37:00.393Z,87
2022-10-04T02:38:00.539Z,86.9
2022-10-04T02:39:00.678Z,87
2022-10-04T02:40:00.848Z,87.2
2022-10-04T02:41:01.004Z,87.3
2022-10-04T02:42:01.130Z,87.3
2022-10-04T02:43:00.275Z,87.4
2022-10-04T02:44:00.422Z,87.4
2022-10-04T02:45:00.566Z,87.4
2022-10-04T02:46:00.781Z,87.4
2022-10-04T02:47:00.862Z,87.4
2022-10-04T02:48:01.013Z,87.5
2022-10-04T02:49:01.164Z,87.3
2022-10-04T02:50:00.298Z,87.5
2022-10-04T02:51:00.486Z,87.6
2022-10-04T02:52:00.601Z,87.7
2022-10-04T02:53:00.745Z,87.8
2022-10-04T02:54:03.432Z,87.7
2022-10-04T02:55:01.041Z,87.6
2022-10-04T02:56:01.215Z,87.8
2022-10-04T02:57:00.333Z,88.1
2022-10-04T02:58:00.480Z,88.3
2022-10-04T02:59:00.638Z,88.4
2022-10-04T03:00:00.791Z,88.4
2022-10-04T03:01:01.073Z,88.3
2022-10-04T03:02:01.165Z,88.2
2022-10-04T03:03:01.231Z,87.9
2022-10-04T03:04:00.385Z,88
2022-10-04T03:05:00.524Z,88
2022-10-04T03:06:00.703Z,88.1
2022-10-04T03:07:00.819Z,87.8
2022-10-04T03:08:00.962Z,88.2
2022-10-04T03:09:01.112Z,88.3
2022-10-04T03:10:01.262Z,88.5
2022-10-04T03:11:00.425Z,88.7
2022-10-04T03:12:00.541Z,88.8
2022-10-04T03:13:00.703Z,88.9
2022-10-04T03:14:00.859Z,88.8
2022-10-04T03:15:00.989Z,88.9
2022-10-04T03:16:01.231Z,88.8
2022-10-04T03:17:00.295Z,88.7
2022-10-04T03:18:00.444Z,88.8
2022-10-04T03:19:00.602Z,88.9
2022-10-04T03:20:00.755Z,88.7
2022-10-04T03:21:00.942Z,88.6
2022-10-04T03:22:01.054Z,88.7
2022-10-04T03:23:01.183Z,88.7
2022-10-04T03:24:00.337Z,88.8
2022-10-04T03:25:00.500Z,88.8
2022-10-04T03:26:00.649Z,88.9
2022-10-04T03:27:00.795Z,89.1
2022-10-04T03:28:01.007Z,89.2
2022-10-04T03:29:01.088Z,89.3
2022-10-04T03:30:01.233Z,89.3
2022-10-04T03:31:00.448Z,89.2
2022-10-04T03:32:00.512Z,89.1
2022-10-04T03:33:00.699Z,89
2022-10-04T03:34:00.837Z,89
2022-10-04T03:35:01.020Z,89.2
2022-10-04T03:36:01.129Z,89.2
2022-10-04T03:37:01.279Z,89.1
2022-10-04T03:38:00.387Z,89
2022-10-04T03:39:00.539Z,89
2022-10-04T03:40:00.694Z,89.1
2022-10-04T03:41:00.849Z,88.9
2022-10-04T03:42:01.014Z,89
2022-10-04T03:43:01.144Z,89
2022-10-04T03:44:04.169Z,89.2
2022-10-04T03:45:00.424Z,89.5
2022-10-04T03:46:00.607Z,89.6
2022-10-04T03:47:00.759Z,89.6
2022-10-04T03:48:00.872Z,89.6
2022-10-04T03:49:01.032Z,89.5
2022-10-04T03:50:01.177Z,89.5
2022-10-04T03:51:00.309Z,89.4
2022-10-04T03:52:00.481Z,89.4
2022-10-04T03:53:00.610Z,89.4
2022-10-04T03:54:00.766Z,89.3
2022-10-04T03:55:00.909Z,89.3
2022-10-04T03:56:04.402Z,89.4
2022-10-04T03:57:01.200Z,89.4
2022-10-04T03:58:00.347Z,89.4
2022-10-04T03:59:00.489Z,89.4
2022-10-04T04:00:00.650Z,89.2
2022-10-04T04:01:00.871Z,89.1
2022-10-04T04:02:01.021Z,89.1
2022-10-04T04:03:01.086Z,89.3
2022-10-04T04:04:01.234Z,89.2
2022-10-04T04:05:00.401Z,89.3
2022-10-04T04:06:00.519Z,89.2
2022-10-04T04:07:00.680Z,89.3
2022-10-04T04:08:00.844Z,89.2
2022-10-04T04:09:00.961Z,89.2
2022-10-04T04:10:01.098Z,89.2
2022-10-04T04:11:01.241Z,89.2
2022-10-04T04:12:00.383Z,89.3
2022-10-04T04:13:00.607Z,89.3
2022-10-04T04:14:00.715Z,89.3
2022-10-04T04:15:00.870Z,89.3
2022-10-04T04:16:01.152Z,89.3
2022-10-04T04:17:01.128Z,89.4
2022-10-04T04:18:00.294Z,89.3
2022-10-04T04:19:00.425Z,89.4
2022-10-04T04:20:06.132Z,89.4
2022-10-04T04:21:00.733Z,89.3
2022-10-04T04:22:00.877Z,89.3
2022-10-04T04:23:01.027Z,89.3
2022-10-04T04:24:01.166Z,89.3
2022-10-04T04:25:00.312Z,89.2
2022-10-04T04:26:00.454Z,89.3
2022-10-04T04:27:00.637Z,89.4
2022-10-04T04:28:00.843Z,89.5
2022-10-04T04:29:00.920Z,89.6
2022-10-04T04:30:01.046Z,89.4
2022-10-04T04:31:01.203Z,89.4
2022-10-04T04:32:00.412Z,89.4
2022-10-04T04:33:00.515Z,89.3
2022-10-04T04:34:00.809Z,89.4
2022-10-04T04:35:00.801Z,89.4
2022-10-04T04:36:00.956Z,89.5
2022-10-04T04:37:01.098Z,89.5
2022-10-04T04:38:01.265Z,89.5
2022-10-04T04:39:00.392Z,89.5
2022-10-04T04:40:00.532Z,89.3
2022-10-04T04:41:00.688Z,89.2
2022-10-04T04:42:00.823Z,89.2
2022-10-04T04:43:00.979Z,89.2
2022-10-04T04:44:01.143Z,89.3
2022-10-04T04:45:00.307Z,89.3
2022-10-04T04:46:22.409Z,89.2
2022-10-04T04:47:00.884Z,89.3
2022-10-04T04:48:00.705Z,89.4
2022-10-04T04:49:00.859Z,89.4
2022-10-04T04:50:00.999Z,89.4
2022-10-04T04:51:01.151Z,89.5
2022-10-04T04:52:00.294Z,89.5
2022-10-04T04:53:00.479Z,89.6
2022-10-04T04:54:00.595Z,89.6
2022-10-04T04:55:00.738Z,89.8
2022-10-04T04:56:04.868Z,89.7
2022-10-04T04:57:01.043Z,89.8
2022-10-04T04:58:01.201Z,90
2022-10-04T04:59:00.328Z,90
2022-10-04T05:00:00.468Z,90.1
2022-10-04T05:01:00.716Z,90.2
2022-10-04T05:02:00.820Z,90.2
2022-10-04T05:03:00.964Z,90.2
2022-10-04T05:04:01.087Z,90.3
2022-10-04T05:05:01.236Z,90.2
2022-10-04T05:06:00.369Z,90.1
2022-10-04T05:07:00.520Z,90
2022-10-04T05:08:00.711Z,90.2
2022-10-04T05:09:00.834Z,90.3
2022-10-04T05:10:00.968Z,90.3
2022-10-04T05:11:01.122Z,90.4
2022-10-04T05:12:00.267Z,90.3
2022-10-04T05:13:00.435Z,90.2
2022-10-04T05:14:00.550Z,90.3
2022-10-04T05:15:00.711Z,90.4
2022-10-04T05:16:00.940Z,90.5
2022-10-04T05:17:01.005Z,90.6
2022-10-04T05:18:01.174Z,90.6
2022-10-04T05:19:00.294Z,90.5
2022-10-04T05:20:00.478Z,90.3
2022-10-04T05:21:00.590Z,90.3
2022-10-04T05:22:00.727Z,90.3
2022-10-04T05:23:00.907Z,90.3
2022-10-04T05:24:01.026Z,90.4
2022-10-04T05:25:01.171Z,90.4
2022-10-04T05:26:00.343Z,90.5
2022-10-04T05:27:00.456Z,90.5
2022-10-04T05:28:00.678Z,90.6
2022-10-04T05:29:00.768Z,90.6
2022-10-04T05:30:00.916Z,90.7
2022-10-04T05:31:01.054Z,90.8
2022-10-04T05:32:01.250Z,90.7
2022-10-04T05:33:00.361Z,90.6
2022-10-04T05:34:00.443Z,90.5
2022-10-04T05:35:00.598Z,90.4
2022-10-04T05:36:00.744Z,90.3
2022-10-04T05:37:00.891Z,90.1
2022-10-04T05:38:01.061Z,90
2022-10-04T05:39:01.178Z,89.9
2022-10-04T05:40:00.336Z,89.8
2022-10-04T05:41:00.468Z,89.7
2022-10-04T05:42:00.606Z,89.5
2022-10-04T05:43:00.783Z,89.5
2022-10-04T05:44:00.920Z,89.5
2022-10-04T05:45:01.060Z,89.6
2022-10-04T05:46:01.242Z,89.6
2022-10-04T05:47:00.350Z,89.5
2022-10-04T05:48:00.519Z,89.5
2022-10-04T05:49:00.652Z,89.6
2022-10-04T05:50:00.799Z,89.8
2022-10-04T05:51:00.944Z,89.9
2022-10-04T05:52:01.105Z,89.9
2022-10-04T05:53:01.286Z,89.6
2022-10-04T05:54:00.373Z,89.6
2022-10-04T05:55:00.521Z,89.6
2022-10-04T05:56:00.669Z,89.6
2022-10-04T05:57:00.825Z,89.5
2022-10-04T05:58:00.983Z,89.6
2022-10-04T05:59:01.120Z,89.6
2022-10-04T06:00:04.113Z,89.6
2022-10-04T06:01:00.460Z,89.6
2022-10-04T06:02:00.845Z,89.6
2022-10-04T06:03:00.755Z,89.6
2022-10-04T06:04:00.898Z,89.7
2022-10-04T06:05:01.034Z,89.9
2022-10-04T06:06:01.178Z,89.9
2022-10-04T06:07:00.332Z,89.9
2022-10-04T06:08:00.533Z,90
2022-10-04T06:09:00.637Z,90
2022-10-04T06:10:00.779Z,89.9
2022-10-04T06:11:00.932Z,89.9
2022-10-04T06:12:01.060Z,89.9
2022-10-04T06:13:01.233Z,89.9
2022-10-04T06:14:00.355Z,89.9
2022-10-04T06:15:00.494Z,89.9
2022-10-04T06:16:00.650Z,89.9
2022-10-04T06:17:00.846Z,89.8
2022-10-04T06:18:00.949Z,89.9
2022-10-04T06:19:01.077Z,90
2022-10-04T06:20:01.245Z,90
2022-10-04T06:21:00.375Z,90
2022-10-04T06:22:00.515Z,89.9
2022-10-04T06:23:00.687Z,90
2022-10-04T06:24:00.817Z,90.1
2022-10-04T06:25:00.970Z,90.1
2022-10-04T06:26:01.106Z,90.1
2022-10-04T06:27:00.248Z,90.1
2022-10-04T06:28:00.489Z,90.1
2022-10-04T06:29:00.578Z,90.1
2022-10-04T06:30:00.696Z,90
2022-10-04T06:31:00.859Z,89.9
2022-10-04T06:32:01.008Z,89.9
2022-10-04T06:33:01.153Z,89.9
2022-10-04T06:34:00.309Z,89.9
2022-10-04T06:35:00.460Z,89.9
2022-10-04T06:36:00.603Z,89.9
2022-10-04T06:37:00.739Z,89.9
2022-10-04T06:38:00.875Z,89.8
2022-10-04T06:39:04.243Z,89.7
2022-10-04T06:40:01.183Z,89.6
2022-10-04T06:41:00.322Z,89.6
2022-10-04T06:42:00.465Z,89.6
2022-10-04T06:43:00.621Z,89.6
2022-10-04T06:44:00.788Z,89.4
2022-10-04T06:45:00.935Z,89.1
2022-10-04T06:46:01.158Z,88.9
2022-10-04T06:47:01.208Z,88.9
2022-10-04T06:48:00.361Z,88.8
2022-10-04T06:49:00.502Z,88.8
2022-10-04T06:50:00.658Z,88.9
2022-10-04T06:51:00.812Z,88.9
2022-10-04T06:52:00.953Z,88.9
2022-10-04T06:53:01.102Z,89
2022-10-04T06:54:01.239Z,88.9
2022-10-04T06:55:00.393Z,88.8
2022-10-04T06:56:00.553Z,88.9
2022-10-04T06:57:00.693Z,88.8
2022-10-04T06:58:00.837Z,88.7
2022-10-04T06:59:00.979Z,88.7
2022-10-04T07:00:01.152Z,88.6
2022-10-04T07:01:00.323Z,88.3
2022-10-04T07:02:00.471Z,88.1
2022-10-04T07:03:00.567Z,88
2022-10-04T07:04:00.725Z,88.1
2022-10-04T07:05:08.454Z,88.2
2022-10-04T07:06:01.006Z,88.1
2022-10-04T07:07:01.170Z,88.1
2022-10-04T07:08:00.314Z,88.1
2022-10-04T07:09:00.466Z,88.1
2022-10-04T07:10:00.638Z,88.2
2022-10-04T07:11:00.766Z,88.2
2022-10-04T07:12:00.913Z,88
2022-10-04T07:13:01.070Z,87.8
2022-10-04T07:14:01.206Z,87.7
2022-10-04T07:15:00.363Z,87.8
2022-10-04T07:16:00.596Z,87.9
2022-10-04T07:17:00.654Z,87.9
2022-10-04T07:18:00.802Z,87.9
2022-10-04T07:19:00.962Z,87.7
2022-10-04T07:20:01.106Z,87.8
2022-10-04T07:21:01.272Z,87.8
2022-10-04T07:22:00.394Z,87.8
2022-10-04T07:23:00.559Z,87.7
2022-10-04T07:24:00.705Z,87.6
2022-10-04T07:25:00.841Z,87.3
2022-10-04T07:26:00.998Z,87.4
2022-10-04T07:27:01.132Z,87.6
2022-10-04T07:28:00.340Z,87.6
2022-10-04T07:29:00.447Z,87.6
2022-10-04T07:30:00.580Z,87.5
2022-10-04T07:31:00.797Z,87.6
2022-10-04T07:32:00.901Z,87.6
2022-10-04T07:33:01.042Z,87.5
2022-10-04T07:34:01.182Z,87.4
2022-10-04T07:35:00.351Z,87.4
2022-10-04T07:36:00.482Z,87.3
2022-10-04T07:37:00.649Z,87.3
2022-10-04T07:38:00.783Z,87.2
2022-10-04T07:39:00.927Z,87.3
2022-10-04T07:40:01.081Z,87.2
2022-10-04T07:41:01.234Z,87.1
2022-10-04T07:42:00.384Z,87.1
2022-10-04T07:43:00.540Z,87.3
2022-10-04T07:44:00.678Z,87.3
2022-10-04T07:45:00.816Z,87.2
2022-10-04T07:46:00.965Z,87.2
2022-10-04T07:47:01.106Z,87
2022-10-04T07:48:01.274Z,86.9
2022-10-04T07:49:00.398Z,86.3
2022-10-04T07:50:00.527Z,86.4
2022-10-04T07:51:00.671Z,86.5
2022-10-04T07:52:00.826Z,86.4
2022-10-04T07:53:02.377Z,86.3
2022-10-04T07:54:01.118Z,86.1
2022-10-04T07:55:00.273Z,86.1
2022-10-04T07:56:00.410Z,86.2
2022-10-04T07:57:00.568Z,86
2022-10-04T07:58:00.743Z,85.7
2022-10-04T07:59:00.870Z,85.9
2022-10-04T08:00:01.011Z,86.2
2022-10-04T08:01:01.151Z,86.3
2022-10-04T08:02:00.322Z,86.1
2022-10-04T08:03:00.578Z,86.1
2022-10-04T08:04:00.585Z,86.1
2022-10-04T08:05:00.734Z,86.3
2022-10-04T08:06:00.896Z,86.4
2022-10-04T08:07:01.031Z,86.1
2022-10-04T08:08:01.207Z,85.8
2022-10-04T08:09:00.328Z,85.2
2022-10-04T08:10:00.481Z,85.4
2022-10-04T08:11:00.621Z,86.1
2022-10-04T08:12:00.768Z,86.4
2022-10-04T08:13:00.944Z,86.3
2022-10-04T08:14:01.053Z,86.3
2022-10-04T08:15:01.247Z,85.9
2022-10-04T08:16:00.388Z,85.8
2022-10-04T08:17:00.488Z,85.7
2022-10-04T08:18:00.658Z,85.8
2022-10-04T08:19:00.811Z,86.2
2022-10-04T08:20:00.940Z,86.2
2022-10-04T08:21:01.086Z,85.9
2022-10-04T08:22:01.238Z,85.7
2022-10-04T08:23:00.392Z,85.7
2022-10-04T08:24:00.557Z,85.7
2022-10-04T08:25:00.691Z,86.1
2022-10-04T08:26:00.822Z,85.9
2022-10-04T08:27:00.978Z,85.8
2022-10-04T08:28:01.161Z,86
2022-10-04T08:29:00.271Z,85.9
2022-10-04T08:30:00.429Z,86
2022-10-04T08:31:00.620Z,85.7
2022-10-04T08:32:04.906Z,85.4
2022-10-04T08:33:00.856Z,85.8
2022-10-04T08:34:01.005Z,85.7
2022-10-04T08:35:01.155Z,85.4
2022-10-04T08:36:00.313Z,85.2
2022-10-04T08:37:00.474Z,85.5
2022-10-04T08:38:00.605Z,85.5
2022-10-04T08:39:00.757Z,85.3
2022-10-04T08:40:00.904Z,85.4
2022-10-04T08:41:01.064Z,85.5
2022-10-04T08:42:01.237Z,85.4
2022-10-04T08:43:00.361Z,85.3
2022-10-04T08:44:00.515Z,85.3
2022-10-04T08:45:00.673Z,85
2022-10-04T08:46:00.940Z,85.3
2022-10-04T08:47:00.979Z,85.4
2022-10-04T08:48:01.116Z,85.1
2022-10-04T08:49:01.256Z,85.3
2022-10-04T08:50:00.380Z,84.8
2022-10-04T08:51:00.524Z,85.1
2022-10-04T08:52:00.685Z,85.1
2022-10-04T08:53:00.844Z,85.3
2022-10-04T08:54:00.970Z,85
2022-10-04T08:55:01.136Z,85.1
2022-10-04T08:56:00.284Z,85
2022-10-04T08:57:00.421Z,84.9
2022-10-04T08:58:00.567Z,84.7
2022-10-04T08:59:00.719Z,84.4
2022-10-04T09:00:00.859Z,84.2
2022-10-04T09:01:01.208Z,84.2
2022-10-04T09:02:01.177Z,84.6
2022-10-04T09:03:00.366Z,84.9
2022-10-04T09:04:00.445Z,84.8
2022-10-04T09:05:00.597Z,84.8
2022-10-04T09:06:00.757Z,84.4
2022-10-04T09:07:00.915Z,84.6
2022-10-04T09:08:01.038Z,84.6
2022-10-04T09:09:01.191Z,84
2022-10-04T09:10:00.335Z,84.4
2022-10-04T09:11:00.522Z,83.8
2022-10-04T09:12:00.643Z,83.5
2022-10-04T09:13:00.794Z,83.8
2022-10-04T09:14:00.946Z,83.6
2022-10-04T09:15:01.095Z,83.7
2022-10-04T09:16:01.361Z,84.4
2022-10-04T09:17:00.388Z,84
2022-10-04T09:18:00.543Z,84.2
2022-10-04T09:19:00.689Z,84.3
2022-10-04T09:20:19.686Z,84.2
2022-10-04T09:21:00.999Z,83.9
2022-10-04T09:22:01.139Z,83.7
2022-10-04T09:23:04.173Z,83.5
2022-10-04T09:24:00.445Z,83.4
2022-10-04T09:25:00.593Z,83.8
2022-10-04T09:26:00.743Z,83.9
2022-10-04T09:27:00.888Z,83.7
2022-10-04T09:28:01.112Z,83.7
2022-10-04T09:29:04.550Z,83.5
2022-10-04T09:30:00.331Z,83.8
2022-10-04T09:31:00.560Z,84
2022-10-04T09:32:00.638Z,83.6
2022-10-04T09:33:00.821Z,83.5
2022-10-04T09:34:00.963Z,82.9
2022-10-04T09:35:01.104Z,82.8
2022-10-04T09:36:01.260Z,82.9
2022-10-04T09:37:00.399Z,82.6
2022-10-04T09:38:00.571Z,82.9
2022-10-04T09:39:25.167Z,83
2022-10-04T09:40:00.846Z,83.3
2022-10-04T09:41:00.987Z,83.2
2022-10-04T09:42:01.139Z,82.8
2022-10-04T09:43:00.296Z,83.1
2022-10-04T09:44:00.443Z,83.2
2022-10-04T09:45:00.601Z,83.1
2022-10-04T09:46:00.785Z,82.6
2022-10-04T09:47:00.950Z,82
2022-10-04T09:48:01.072Z,82.5
2022-10-04T09:49:01.189Z,83.2
2022-10-04T09:50:00.324Z,82.5
2022-10-04T09:51:00.486Z,83
2022-10-04T09:52:00.634Z,83
2022-10-04T09:53:00.796Z,82.7
2022-10-04T09:54:00.918Z,82
2022-10-04T09:55:01.093Z,82.2
2022-10-04T09:56:01.251Z,81.7
2022-10-04T09:57:00.377Z,82
2022-10-04T09:58:00.558Z,81.8
2022-10-04T09:59:00.661Z,82.2
2022-10-04T10:00:00.801Z,82.1
2022-10-04T10:01:00.951Z,82.5
2022-10-04T10:02:01.141Z,82.3
2022-10-04T10:03:01.369Z,82.1
2022-10-04T10:04:00.403Z,82.6
2022-10-04T10:05:00.549Z,82.9
2022-10-04T10:06:00.706Z,83
2022-10-04T10:07:00.881Z,82.5
2022-10-04T10:08:01.045Z,82.7
2022-10-04T10:09:01.183Z,82.9
2022-10-04T10:10:00.315Z,83
2022-10-04T10:11:00.444Z,82
2022-10-04T10:12:00.592Z,82.1
2022-10-04T10:13:00.756Z,82.1
2022-10-04T10:14:00.934Z,82.7
2022-10-04T10:15:01.061Z,81.7
2022-10-04T10:16:01.278Z,81.5
2022-10-04T10:17:00.331Z,81.4
2022-10-04T10:18:00.487Z,80.8
2022-10-04T10:19:00.662Z,81.2
2022-10-04T10:20:00.782Z,81.2
2022-10-04T10:21:00.933Z,80.8
2022-10-04T10:22:01.076Z,81.6
2022-10-04T10:23:01.213Z,81.7
2022-10-04T10:24:00.388Z,81
2022-10-04T10:25:00.515Z,81.2
2022-10-04T10:26:00.654Z,81.5
2022-10-04T10:27:00.801Z,81.5
2022-10-04T10:28:01.069Z,81
2022-10-04T10:29:01.114Z,80.3
2022-10-04T10:30:01.245Z,80.4
2022-10-04T10:31:00.469Z,80
2022-10-04T10:32:00.536Z,78.3
2022-10-04T10:33:00.682Z,79.3
2022-10-04T10:34:00.854Z,79.3
2022-10-04T10:35:00.969Z,80.3
2022-10-04T10:36:01.143Z,81.5
2022-10-04T10:37:00.278Z,80.6
2022-10-04T10:38:04.462Z,80.2
2022-10-04T10:39:00.570Z,80
2022-10-04T10:40:00.719Z,79.6
2022-10-04T10:41:00.870Z,79.1
2022-10-04T10:42:01.021Z,79.3
2022-10-04T10:43:01.140Z,78.5
2022-10-04T10:44:00.300Z,79.8
2022-10-04T10:45:00.468Z,78.1
2022-10-04T10:46:00.601Z,78.1
2022-10-04T10:47:00.845Z,78.1
2022-10-04T10:48:00.887Z,78
2022-10-04T10:49:01.030Z,79
2022-10-04T10:50:01.201Z,78.5
2022-10-04T10:51:00.370Z,78.8
2022-10-04T10:52:00.481Z,79.9
2022-10-04T10:53:00.637Z,79
2022-10-04T10:54:00.797Z,79.7
2022-10-04T10:55:00.953Z,78.7
2022-10-04T10:56:01.102Z,79.6
2022-10-04T10:57:01.239Z,80
2022-10-04T10:58:00.376Z,79
2022-10-04T10:59:00.523Z,79.2
2022-10-04T11:00:00.680Z,78.8
2022-10-04T11:01:00.843Z,79.6
2022-10-04T11:02:01.191Z,78.8
2022-10-04T11:03:12.670Z,78.7
2022-10-04T11:04:00.291Z,78.5
2022-10-04T11:05:00.420Z,77.5
2022-10-04T11:06:00.587Z,77.5
2022-10-04T11:07:00.724Z,78.5
2022-10-04T11:08:00.861Z,78.9
2022-10-04T11:09:01.014Z,78.8
2022-10-04T11:10:01.161Z,77.9
2022-10-04T11:11:00.322Z,78.4
2022-10-04T11:12:00.445Z,79.1
2022-10-04T11:13:00.633Z,78.4
2022-10-04T11:14:00.749Z,78.2
2022-10-04T11:15:00.893Z,77.7
2022-10-04T11:16:01.088Z,78.5
2022-10-04T11:17:01.204Z,79.4
2022-10-04T11:18:00.368Z,79
2022-10-04T11:19:00.487Z,77.2
2022-10-04T11:20:00.644Z,77
2022-10-04T11:21:00.807Z,77.6
2022-10-04T11:22:00.954Z,76.8
2022-10-04T11:23:01.120Z,77.4
2022-10-04T11:24:01.243Z,78
2022-10-04T11:25:00.391Z,78.5
2022-10-04T11:26:00.542Z,79.1
2022-10-04T11:27:00.697Z,78.2
2022-10-04T11:28:00.923Z,78.4
2022-10-04T11:29:00.977Z,78.5
2022-10-04T11:30:01.139Z,79.2
2022-10-04T11:31:00.323Z,78.1
2022-10-04T11:32:00.435Z,77.3
2022-10-04T11:33:00.590Z,75.9
2022-10-04T11:34:00.729Z,77.5
2022-10-04T11:35:00.862Z,78.5
2022-10-04T11:36:01.010Z,77.7
2022-10-04T11:37:01.147Z,78.1
2022-10-04T11:38:00.292Z,78.4
2022-10-04T11:39:00.456Z,78.1
2022-10-04T11:40:00.578Z,77.8
2022-10-04T11:41:00.729Z,77.8
2022-10-04T11:42:00.874Z,77.1
2022-10-04T11:43:01.007Z,76.3
2022-10-04T11:44:01.177Z,77.9
2022-10-04T11:45:00.340Z,77.7
2022-10-04T11:46:00.455Z,78.7
2022-10-04T11:47:00.694Z,78
2022-10-04T11:48:00.746Z,78.5
2022-10-04T11:49:00.890Z,78.7
2022-10-04T11:50:01.067Z,77.8
2022-10-04T11:51:01.218Z,78.1
2022-10-04T11:52:02.639Z,77.4
2022-10-04T11:53:00.490Z,77.9
2022-10-04T11:54:00.636Z,77.8
2022-10-04T11:55:00.800Z,78
2022-10-04T11:56:00.968Z,77.5
2022-10-04T11:57:01.101Z,78
2022-10-04T11:58:01.250Z,77.6
2022-10-04T11:59:00.396Z,77.6
2022-10-04T12:00:00.568Z,76.9
2022-10-04T12:01:00.720Z,77
2022-10-04T12:02:00.859Z,76.9
2022-10-04T12:03:01.003Z,76.2
2022-10-04T12:04:01.309Z,75.8
2022-10-04T12:05:00.421Z,75.6
2022-10-04T12:06:00.477Z,75.8
2022-10-04T12:07:00.607Z,75.5
2022-10-04T12:08:00.761Z,75.9
2022-10-04T12:09:00.907Z,76.6
2022-10-04T12:10:01.401Z,76.3
2022-10-04T12:11:01.211Z,77.3
2022-10-04T12:12:00.341Z,77.7
2022-10-04T12:13:00.489Z,78.2
2022-10-04T12:14:00.626Z,76
2022-10-04T12:15:00.768Z,77.9
2022-10-04T12:16:01.010Z,76.8
2022-10-04T12:17:01.082Z,77
2022-10-04T12:18:01.246Z,75.7
2022-10-04T12:19:00.372Z,76.2
2022-10-04T12:20:00.512Z,75.4
2022-10-04T12:21:00.731Z,76.5
2022-10-04T12:22:00.805Z,76.7
2022-10-04T12:23:00.978Z,78.1
2022-10-04T12:24:01.129Z,77.3
2022-10-04T12:25:01.268Z,76.6
2022-10-04T12:26:00.404Z,76
2022-10-04T12:27:00.555Z,76.8
2022-10-04T12:28:00.798Z,76.3
2022-10-04T12:29:00.843Z,77.1
2022-10-04T12:30:00.989Z,76.6
2022-10-04T12:31:01.133Z,77.4
2022-10-04T12:32:00.345Z,75.6
2022-10-04T12:33:00.452Z,75.5
2022-10-04T12:34:00.597Z,75.6
2022-10-04T12:35:00.747Z,76.3
2022-10-04T12:36:00.890Z,77.9
2022-10-04T12:37:01.035Z,77.1
2022-10-04T12:38:01.197Z,75.7
2022-10-04T12:39:00.309Z,76.8
2022-10-04T12:40:00.465Z,76
2022-10-04T12:41:00.624Z,76.4
2022-10-04T12:42:00.770Z,76.4
2022-10-04T12:43:00.935Z,75.6
2022-10-04T12:44:01.106Z,75.6
2022-10-04T12:45:01.227Z,73.2
2022-10-04T12:46:00.494Z,73.5
2022-10-04T12:47:00.508Z,74
2022-10-04T12:48:00.654Z,74.7
2022-10-04T12:49:00.822Z,75.4
2022-10-04T12:50:00.984Z,76.2
2022-10-04T12:51:01.114Z,76.3
2022-10-04T12:52:01.258Z,76.4
2022-10-04T12:53:00.404Z,76.7
2022-10-04T12:54:00.543Z,75.8
2022-10-04T12:55:00.740Z,77
2022-10-04T12:56:00.848Z,77
2022-10-04T12:57:00.984Z,75
2022-10-04T12:58:01.135Z,74.9
2022-10-04T12:59:00.284Z,74.7
2022-10-04T13:00:00.453Z,74
2022-10-04T13:01:02.398Z,74.4
2022-10-04T13:02:00.789Z,73.4
2022-10-04T13:03:00.877Z,74.4
2022-10-04T13:04:01.026Z,74.3
2022-10-04T13:05:01.185Z,74.3
2022-10-04T13:06:00.347Z,75
2022-10-04T13:07:00.459Z,76
2022-10-04T13:08:00.610Z,75.5
2022-10-04T13:09:00.757Z,74.3
2022-10-04T13:10:23.160Z,74.1
2022-10-04T13:11:01.092Z,74
2022-10-04T13:12:01.201Z,73.4
2022-10-04T13:13:05.043Z,74.4
2022-10-04T13:14:00.503Z,74.8
2022-10-04T13:15:00.635Z,74.3
2022-10-04T13:17:35.376Z,74.8
2022-10-04T13:18:01.102Z,75
2022-10-04T13:19:03.861Z,75.3
2022-10-04T13:20:00.431Z,75.3
2022-10-04T13:21:00.613Z,75.7
2022-10-04T13:22:00.728Z,76.4
2022-10-04T13:23:00.884Z,75.9
2022-10-04T13:24:01.022Z,75.9
2022-10-04T13:25:01.172Z,73.7
2022-10-04T13:26:03.851Z,73.7